createdAt,value
2019-01-15T00:02:19.972Z,-21140.66
2019-01-15T00:04:48.261Z,-21128.13
2019-01-15T00:07:16.522Z,-21133.82
2019-01-15T00:09:44.798Z,-21131.55
2019-01-15T00:12:14.627Z,-21107.63
2019-01-15T00:14:42.880Z,-21122.30
2019-01-15T00:17:11.222Z,-21119.45
2019-01-15T00:19:39.503Z,-21127.42
2019-01-15T00:22:07.778Z,-21113.34
2019-01-15T00:24:36.037Z,-21109.20
2019-01-15T00:27:04.373Z,-21120.45
2019-01-15T00:29:32.696Z,-21112.91
2019-01-15T00:32:00.927Z,-21141.51
2019-01-15T00:34:29.222Z,-21107.92
2019-01-15T00:36:57.493Z,-21114.04
2019-01-15T00:39:25.743Z,-21119.17
2019-01-15T00:41:54.094Z,-21125.57
2019-01-15T00:44:22.719Z,-21121.44
2019-01-15T00:46:51.003Z,-21121.59
2019-01-15T00:49:19.328Z,-21132.12
2019-01-15T00:51:47.610Z,-21126.57
2019-01-15T00:54:15.878Z,-21148.90
2019-01-15T00:56:44.133Z,-21136.10
2019-01-15T00:59:12.393Z,-21137.67
2019-01-15T01:01:40.672Z,-21127.42
2019-01-15T01:04:08.930Z,-21127.28
2019-01-15T01:06:37.192Z,-21145.35
2019-01-15T01:09:09.516Z,-21134.54
2019-01-15T01:11:37.840Z,-21146.34
2019-01-15T01:14:06.132Z,-21146.20
2019-01-15T01:16:34.383Z,-21137.67
2019-01-15T01:19:02.659Z,-21150.75
2019-01-15T01:21:30.915Z,-21132.68
2019-01-15T01:23:59.271Z,-21139.80
2019-01-15T01:26:27.518Z,-21159.14
2019-01-15T01:28:55.798Z,-21161.70
2019-01-15T01:31:24.077Z,-21148.48
2019-01-15T01:33:52.347Z,-21150.47
2019-01-15T01:36:20.628Z,-21146.63
2019-01-15T01:38:48.904Z,-21135.81
2019-01-15T01:41:17.196Z,-21124.43
2019-01-15T01:43:45.459Z,-21136.24
2019-01-15T01:46:13.725Z,-21139.80
2019-01-15T01:48:42.021Z,-21155.58
2019-01-15T01:51:10.286Z,-21154.59
2019-01-15T01:53:38.558Z,-21135.96
2019-01-15T01:56:06.908Z,-21144.21
2019-01-15T01:58:35.173Z,-21122.87
2019-01-15T02:01:03.450Z,-21108.63
2019-01-15T02:03:31.772Z,-21154.73
2019-01-15T02:06:00.130Z,-21131.41
2019-01-15T02:08:28.393Z,-21134.68
2019-01-15T02:10:56.672Z,-21137.96
2019-01-15T02:13:24.946Z,-21142.36
2019-01-15T02:15:53.213Z,-21140.52
2019-01-15T02:18:21.470Z,-21122.73
2019-01-15T02:20:49.743Z,-21122.30
2019-01-15T02:23:18.027Z,-21132.68
2019-01-15T02:25:46.300Z,-21129.13
2019-01-15T02:28:14.568Z,-21131.12
2019-01-15T02:30:42.879Z,-21098.80
2019-01-15T02:33:11.116Z,-21108.35
2019-01-15T02:35:39.448Z,-21108.63
2019-01-15T02:38:07.714Z,-21100.09
2019-01-15T02:40:35.980Z,-21104.65
2019-01-15T02:43:04.227Z,-21106.50
2019-01-15T02:45:32.502Z,-21101.37
2019-01-15T02:48:00.755Z,-21112.62
2019-01-15T02:50:29.016Z,-21106.07
2019-01-15T02:52:57.287Z,-21101.37
2019-01-15T02:55:25.598Z,-21104.50
2019-01-15T02:57:53.840Z,-21101.09
2019-01-15T03:00:23.935Z,-21107.78
2019-01-15T03:02:52.292Z,-21104.22
2019-01-15T03:05:20.687Z,-21090.68
2019-01-15T03:07:48.984Z,-21118.03
2019-01-15T03:10:19.402Z,-21099.38
2019-01-15T03:12:55.429Z,-21103.93
2019-01-15T03:15:21.896Z,-21112.19
2019-01-15T03:17:50.168Z,-21115.90
2019-01-15T03:20:18.555Z,-21108.63
2019-01-15T03:22:46.888Z,-21105.64
2019-01-15T03:25:15.608Z,-21122.44
2019-01-15T03:27:44.509Z,-21121.16
2019-01-15T03:30:15.985Z,-21114.47
2019-01-15T03:32:44.238Z,-21110.63
2019-01-15T03:35:12.575Z,-21120.30
2019-01-15T03:37:40.842Z,-21131.26
2019-01-15T03:40:23.314Z,-21117.74
2019-01-15T03:42:51.654Z,-21121.30
2019-01-15T03:45:20.318Z,-21116.46
2019-01-15T03:47:48.622Z,-21111.62
2019-01-15T03:50:17.531Z,-21115.18
2019-01-15T03:52:45.849Z,-21098.09
2019-01-15T03:55:16.621Z,-21091.54
2019-01-15T03:57:44.952Z,-21088.83
2019-01-15T04:00:21.508Z,-21121.73
2019-01-15T04:02:49.851Z,-21121.02
2019-01-15T04:05:18.209Z,-21089.26
2019-01-15T04:07:48.484Z,-21081.13
2019-01-15T04:10:16.763Z,-21086.55
2019-01-15T04:12:45.173Z,-21094.39
2019-01-15T04:15:14.184Z,-21109.91
2019-01-15T04:17:42.548Z,-21113.48
2019-01-15T04:20:17.726Z,-21108.78
2019-01-15T04:22:46.070Z,-21098.66
2019-01-15T04:25:15.682Z,-21097.67
2019-01-15T04:27:44.006Z,-21110.48
2019-01-15T04:30:15.450Z,-21102.65
2019-01-15T04:32:43.701Z,-21089.12
2019-01-15T04:35:12.053Z,-21071.44
2019-01-15T04:37:40.462Z,-21069.87
2019-01-15T04:40:14.868Z,-21079.14
2019-01-15T04:42:43.120Z,-21089.12
2019-01-15T04:45:14.141Z,-21074.14
2019-01-15T04:47:42.421Z,-21081.27
2019-01-15T04:50:10.921Z,-21081.56
2019-01-15T04:52:41.055Z,-21070.16
2019-01-15T04:55:11.165Z,-21067.16
2019-01-15T04:57:39.424Z,-21067.16
2019-01-15T05:00:11.162Z,-21077.71
2019-01-15T05:02:40.287Z,-21059.31
2019-01-15T05:05:09.088Z,-21065.73
2019-01-15T05:07:37.362Z,-21075.86
2019-01-15T05:10:09.047Z,-21065.02
2019-01-15T05:12:37.326Z,-21063.87
2019-01-15T05:15:08.745Z,-21059.74
2019-01-15T05:17:36.996Z,-21058.46
2019-01-15T05:20:11.230Z,-21069.30
2019-01-15T05:22:39.494Z,-21067.59
2019-01-15T05:25:19.439Z,-21072.43
2019-01-15T05:27:47.794Z,-21070.01
2019-01-15T05:30:21.995Z,-21085.27
2019-01-15T05:32:50.336Z,-21067.01
2019-01-15T05:35:18.628Z,-21067.30
2019-01-15T05:37:46.904Z,-21063.02
2019-01-15T05:40:16.055Z,-21076.43
2019-01-15T05:42:44.321Z,-21088.12
2019-01-15T05:45:16.786Z,-21052.46
2019-01-15T05:47:45.223Z,-21058.03
2019-01-15T05:50:15.208Z,-21051.89
2019-01-15T05:52:43.472Z,-21063.02
2019-01-15T05:55:11.798Z,-21049.89
2019-01-15T05:57:40.098Z,-21040.76
2019-01-15T06:00:16.202Z,-21056.74
2019-01-15T06:02:44.489Z,-21048.46
2019-01-15T06:05:13.510Z,-21039.33
2019-01-15T06:07:41.768Z,-21050.32
2019-01-15T06:10:15.664Z,-21054.03
2019-01-15T06:12:43.956Z,-21050.61
2019-01-15T06:15:16.395Z,-21057.17
2019-01-15T06:17:44.735Z,-21059.17
2019-01-15T06:20:20.353Z,-21051.46
2019-01-15T06:22:48.792Z,-21065.30
2019-01-15T06:25:17.418Z,-21061.88
2019-01-15T06:27:45.859Z,-21081.41
2019-01-15T06:30:16.463Z,-21076.14
2019-01-15T06:32:44.745Z,-21053.18
2019-01-15T06:35:13.044Z,-21061.45
2019-01-15T06:37:41.303Z,-21065.02
2019-01-15T06:40:15.442Z,-21066.02
2019-01-15T06:42:43.700Z,-21058.74
2019-01-15T06:45:15.265Z,-21056.46
2019-01-15T06:47:43.592Z,-21052.89
2019-01-15T06:50:13.801Z,-21053.46
2019-01-15T06:52:42.120Z,-21054.60
2019-01-15T06:55:16.377Z,-21043.18
2019-01-15T06:57:44.925Z,-21045.04
2019-01-15T07:00:21.403Z,-21053.18
2019-01-15T07:02:49.914Z,-21048.89
2019-01-15T07:05:18.240Z,-21027.76
2019-01-15T07:07:46.590Z,-21044.18
2019-01-15T07:10:18.003Z,-21037.05
2019-01-15T07:12:46.259Z,-21046.46
2019-01-15T07:15:14.666Z,-21045.32
2019-01-15T07:17:43.015Z,-21068.87
2019-01-15T07:20:14.419Z,-21064.73
2019-01-15T07:22:42.654Z,-21065.87
2019-01-15T07:25:13.697Z,-21064.30
2019-01-15T07:27:41.963Z,-21070.73
2019-01-15T07:30:18.928Z,-21060.46
2019-01-15T07:32:47.199Z,-21068.01
2019-01-15T07:35:15.459Z,-21067.59
2019-01-15T07:37:43.784Z,-21061.59
2019-01-15T07:40:13.506Z,-21058.31
2019-01-15T07:42:42.655Z,-21057.46
2019-01-15T07:45:13.275Z,-21055.46
2019-01-15T07:47:41.598Z,-21043.75
2019-01-15T07:50:15.565Z,-21067.30
2019-01-15T07:52:44.392Z,-21075.28
2019-01-15T07:55:17.683Z,-21072.57
2019-01-15T07:57:45.948Z,-21060.17
2019-01-15T08:00:19.738Z,-21061.88
2019-01-15T08:02:48.444Z,-21070.73
2019-01-15T08:05:19.136Z,-21067.59
2019-01-15T08:07:47.500Z,-21065.02
2019-01-15T08:10:21.366Z,-21057.89
2019-01-15T08:12:49.749Z,-21065.73
2019-01-15T08:15:20.777Z,-21064.73
2019-01-15T08:17:49.165Z,-21051.46
2019-01-15T08:20:17.515Z,-21052.89
2019-01-15T08:22:45.954Z,-21062.16
2019-01-15T08:25:15.965Z,-21072.15
2019-01-15T08:27:44.385Z,-21070.16
2019-01-15T08:30:21.191Z,-21074.71
2019-01-15T08:32:49.468Z,-21082.70
2019-01-15T08:35:18.163Z,-21088.97
2019-01-15T08:37:46.427Z,-21092.96
2019-01-15T08:40:16.722Z,-21083.27
2019-01-15T08:42:48.088Z,-21080.99
2019-01-15T08:45:20.043Z,-21077.00
2019-01-15T08:47:53.044Z,-21089.97
2019-01-15T08:50:31.561Z,-21088.41
2019-01-15T08:52:59.923Z,-21082.84
2019-01-15T08:55:28.179Z,-21068.44
2019-01-15T08:57:56.513Z,-21068.58
2019-01-15T09:00:24.844Z,-21084.41
2019-01-15T09:02:53.127Z,-21076.43
2019-01-15T09:05:21.437Z,-21068.73
2019-01-15T09:07:49.739Z,-21070.58
2019-01-15T09:10:18.810Z,-21081.27
2019-01-15T09:12:47.351Z,-21075.43
2019-01-15T09:15:20.891Z,-21084.55
2019-01-15T09:17:49.149Z,-21086.41
2019-01-15T09:20:19.460Z,-21089.26
2019-01-15T09:22:47.791Z,-21064.73
2019-01-15T09:25:16.139Z,-21089.40
2019-01-15T09:27:44.483Z,-21089.97
2019-01-15T09:30:18.105Z,-21075.43
2019-01-15T09:32:46.464Z,-21090.68
2019-01-15T09:35:14.913Z,-21075.57
2019-01-15T09:37:44.009Z,-21083.55
2019-01-15T09:40:15.424Z,-21090.40
2019-01-15T09:42:43.678Z,-21092.96
2019-01-15T09:45:14.505Z,-21075.43
2019-01-15T09:47:47.318Z,-21093.82
2019-01-15T09:50:15.659Z,-21089.12
2019-01-15T09:52:43.977Z,-21064.73
2019-01-15T09:55:12.371Z,-21081.13
2019-01-15T09:57:40.690Z,-21073.57
2019-01-15T10:00:12.148Z,-21077.71
2019-01-15T10:02:40.426Z,-21075.14
2019-01-15T10:05:08.679Z,-21073.29
2019-01-15T10:07:36.963Z,-21082.70
2019-01-15T10:10:11.008Z,-21081.56
2019-01-15T10:12:39.297Z,-21093.54
2019-01-15T10:15:13.607Z,-21089.26
2019-01-15T10:17:41.887Z,-21099.66
2019-01-15T10:20:12.500Z,-21113.19
2019-01-15T10:22:40.757Z,-21098.52
2019-01-15T10:25:11.251Z,-21110.05
2019-01-15T10:27:39.798Z,-21099.80
2019-01-15T10:30:18.868Z,-21111.62
2019-01-15T10:32:52.973Z,-21095.81
2019-01-15T10:35:27.242Z,-21109.06
2019-01-15T10:37:55.499Z,-21100.09
2019-01-15T10:40:23.783Z,-21100.80
2019-01-15T10:42:52.065Z,-21096.39
2019-01-15T10:45:20.453Z,-21105.50
2019-01-15T10:47:48.738Z,-21107.92
2019-01-15T10:50:17.048Z,-21105.50
2019-01-15T10:52:45.332Z,-21103.93
2019-01-15T10:55:13.667Z,-21117.60
2019-01-15T10:57:41.949Z,-21097.52
2019-01-15T11:00:13.013Z,-21129.41
2019-01-15T11:02:41.363Z,-21140.23
2019-01-15T11:05:11.684Z,-21128.13
2019-01-15T11:07:39.963Z,-21114.18
2019-01-15T11:10:16.789Z,-21109.63
2019-01-15T11:12:45.046Z,-21122.30
2019-01-15T11:15:13.393Z,-21118.17
2019-01-15T11:17:41.661Z,-21133.11
2019-01-15T11:20:18.414Z,-21149.33
2019-01-15T11:22:46.692Z,-21131.69
2019-01-15T11:25:15.226Z,-21139.09
2019-01-15T11:27:43.477Z,-21123.72
2019-01-15T11:30:13.959Z,-21122.59
2019-01-15T11:32:42.271Z,-21119.45
2019-01-15T11:35:11.973Z,-21139.38
2019-01-15T11:37:40.261Z,-21122.44
2019-01-15T11:40:13.487Z,-21128.42
2019-01-15T11:42:41.770Z,-21112.05
2019-01-15T11:45:12.865Z,-21115.32
2019-01-15T11:47:41.141Z,-21140.80
2019-01-15T11:50:12.902Z,-21147.34
2019-01-15T11:52:41.182Z,-21131.69
2019-01-15T11:55:09.517Z,-21140.94
2019-01-15T11:57:37.811Z,-21134.11
2019-01-15T12:00:19.525Z,-21131.69
2019-01-15T12:02:49.562Z,-21131.98
2019-01-15T12:05:26.104Z,-21134.68
2019-01-15T12:08:14.114Z,-21133.97
2019-01-15T12:13:28.496Z,-21154.73
2019-01-15T12:16:14.796Z,-21156.44
2019-01-15T12:18:47.355Z,-21162.26
2019-01-15T12:21:17.289Z,-21149.18
2019-01-15T12:23:50.025Z,-21143.64
2019-01-15T12:26:19.943Z,-21161.98
2019-01-15T12:28:49.864Z,-21159.70
2019-01-15T12:31:22.709Z,-21178.74
2019-01-15T12:33:52.630Z,-21176.89
2019-01-15T12:36:25.077Z,-21133.97
2019-01-15T12:39:11.163Z,-21141.51
2019-01-15T12:41:50.047Z,-21151.74
2019-01-15T12:44:22.608Z,-21141.23
2019-01-15T12:46:55.506Z,-21149.04
2019-01-15T12:49:28.184Z,-21162.69
2019-01-15T12:52:03.829Z,-21150.33
2019-01-15T12:54:36.436Z,-21166.10
2019-01-15T12:57:19.155Z,-21150.18
2019-01-15T12:59:51.782Z,-21159.14
2019-01-15T13:02:21.774Z,-21154.30
2019-01-15T13:04:51.608Z,-21140.66
2019-01-15T13:07:21.627Z,-21155.58
2019-01-15T13:10:00.239Z,-21147.62
2019-01-15T13:12:30.128Z,-21128.28
2019-01-15T13:15:02.968Z,-21143.93
2019-01-15T13:17:38.369Z,-21143.64
2019-01-15T13:20:13.483Z,-21141.23
2019-01-15T13:22:43.409Z,-21132.68
2019-01-15T13:25:22.289Z,-21133.54
2019-01-15T13:27:57.969Z,-21154.16
2019-01-15T13:30:27.895Z,-21148.62
2019-01-15T13:33:13.693Z,-21152.32
2019-01-15T13:36:00.032Z,-21162.97
2019-01-15T13:38:38.930Z,-21143.08
2019-01-15T13:41:14.391Z,-21143.79
2019-01-15T13:43:50.126Z,-21152.46
2019-01-15T13:46:37.516Z,-21150.04
2019-01-15T13:49:07.699Z,-21148.90
2019-01-15T13:51:37.635Z,-21141.93
2019-01-15T13:54:13.668Z,-21148.48
2019-01-15T13:56:46.255Z,-21145.35
2019-01-15T13:59:16.124Z,-21147.34
2019-01-15T14:01:55.054Z,-21150.47
2019-01-15T14:04:37.250Z,-21143.64
2019-01-15T14:07:13.128Z,-21149.04
2019-01-15T14:09:43.054Z,-21129.55
2019-01-15T14:12:29.158Z,-21135.81
2019-01-15T14:15:01.910Z,-21142.65
2019-01-15T14:17:31.834Z,-21126.71
2019-01-15T14:20:13.724Z,-21145.92
2019-01-15T14:22:52.603Z,-21162.12
2019-01-15T14:25:28.496Z,-21150.61
2019-01-15T14:28:04.416Z,-21144.49
2019-01-15T14:30:43.420Z,-21148.19
2019-01-15T14:33:29.578Z,-21168.65
2019-01-15T14:36:15.774Z,-21151.60
2019-01-15T14:41:56.343Z,-21146.77
2019-01-15T14:44:26.286Z,-21149.61
2019-01-15T14:47:12.609Z,-21133.97
2019-01-15T14:49:58.734Z,-21147.62
2019-01-15T14:52:32.641Z,-21148.19
2019-01-15T14:55:20.942Z,-21159.70
2019-01-15T14:57:53.485Z,-21152.03
2019-01-15T15:00:32.414Z,-21157.29
2019-01-15T15:03:07.792Z,-21173.34
2019-01-15T15:05:37.794Z,-21163.96
2019-01-15T15:08:07.791Z,-21170.50
2019-01-15T15:10:53.768Z,-21150.61
2019-01-15T15:13:23.670Z,-21141.51
2019-01-15T15:16:03.605Z,-21155.86
2019-01-15T15:18:31.478Z,-21142.50
2019-01-15T15:21:16.191Z,-21151.60
2019-01-15T15:23:54.829Z,-21144.78
2019-01-15T15:26:36.715Z,-21158.00
2019-01-15T15:29:18.786Z,-21154.73
2019-01-15T15:31:51.739Z,-21151.60
2019-01-15T15:34:21.690Z,-21161.98
2019-01-15T15:37:07.435Z,-21152.46
2019-01-15T15:39:39.822Z,-21147.62
2019-01-15T15:42:09.861Z,-21147.91
2019-01-15T15:44:51.797Z,-21150.04
2019-01-15T15:47:38.232Z,-21146.63
2019-01-15T15:50:26.291Z,-21164.96
2019-01-15T15:53:07.901Z,-21150.18
2019-01-15T15:55:53.950Z,-21148.90
2019-01-15T15:58:26.590Z,-21148.48
2019-01-15T16:01:02.201Z,-21148.90
2019-01-15T16:03:37.771Z,-21143.50
2019-01-15T16:06:10.741Z,-21154.59
2019-01-15T16:08:40.676Z,-21155.02
2019-01-15T16:11:22.104Z,-21152.60
2019-01-15T16:14:01.505Z,-21143.93
2019-01-15T16:16:31.449Z,-21159.70
2019-01-15T16:19:09.879Z,-21159.00
2019-01-15T16:21:45.299Z,-21155.30
2019-01-15T16:24:18.189Z,-21156.86
2019-01-15T16:27:04.048Z,-21161.98
2019-01-15T16:29:39.814Z,-21157.29
2019-01-15T16:32:09.745Z,-21162.12
2019-01-15T16:37:31.520Z,-21160.13
2019-01-15T16:40:19.921Z,-21166.95
2019-01-15T16:43:05.935Z,-21170.64
2019-01-15T16:45:41.624Z,-21162.54
2019-01-15T16:48:27.884Z,-21156.29
2019-01-15T16:51:09.785Z,-21168.37
2019-01-15T16:53:45.188Z,-21159.57
2019-01-15T16:56:31.191Z,-21163.82
2019-01-15T16:59:04.006Z,-21159.84
2019-01-15T17:01:49.160Z,-21142.50
2019-01-15T17:04:31.007Z,-21146.63
2019-01-15T17:07:09.671Z,-21160.56
2019-01-15T17:09:39.570Z,-21144.35
2019-01-15T17:12:25.449Z,-21138.66
2019-01-15T17:15:11.351Z,-21141.09
2019-01-15T17:17:50.194Z,-21139.80
2019-01-15T17:20:29.303Z,-21173.48
2019-01-15T17:23:08.202Z,-21147.77
2019-01-15T17:25:54.632Z,-21160.70
2019-01-15T17:28:24.558Z,-21149.18
2019-01-15T17:30:57.166Z,-21145.35
2019-01-15T17:33:30.052Z,-21141.51
2019-01-15T17:36:14.902Z,-21155.45
2019-01-15T17:38:44.830Z,-21135.39
2019-01-15T17:41:20.811Z,-21158.00
2019-01-15T17:43:53.414Z,-21147.91
2019-01-15T17:46:41.507Z,-21145.78
2019-01-15T17:49:11.435Z,-21141.79
2019-01-15T17:51:53.370Z,-21156.44
2019-01-15T17:54:23.286Z,-21160.56
2019-01-15T17:56:59.344Z,-21162.40
2019-01-15T17:59:34.818Z,-21140.80
2019-01-15T18:02:07.658Z,-21157.57
2019-01-15T18:04:43.752Z,-21172.35
2019-01-15T18:07:28.345Z,-21192.51
2019-01-15T18:10:00.938Z,-21191.24
2019-01-15T18:12:46.986Z,-21177.74
2019-01-15T18:15:16.941Z,-21151.74
2019-01-15T18:17:52.527Z,-21159.42
2019-01-15T18:20:25.440Z,-21176.04
2019-01-15T18:23:01.081Z,-21155.72
2019-01-15T18:25:31.082Z,-21167.23
2019-01-15T18:28:19.040Z,-21169.79
2019-01-15T18:30:48.949Z,-21171.50
2019-01-15T18:33:31.027Z,-21178.60
2019-01-15T18:36:00.987Z,-21151.32
2019-01-15T18:38:49.069Z,-21172.92
2019-01-15T18:41:36.457Z,-21174.91
2019-01-15T18:44:18.341Z,-21170.36
2019-01-15T18:46:55.799Z,-21176.89
2019-01-15T18:49:41.598Z,-21186.55
2019-01-15T18:52:27.535Z,-21174.48
2019-01-15T18:55:13.650Z,-21185.70
2019-01-15T18:58:00.136Z,-21165.96
2019-01-15T19:00:46.228Z,-21162.26
2019-01-15T19:03:32.391Z,-21158.42
2019-01-15T19:06:08.497Z,-21156.86
2019-01-15T19:08:54.269Z,-21145.35
2019-01-15T19:11:32.177Z,-21140.23
2019-01-15T19:14:10.686Z,-21139.38
2019-01-15T19:16:52.633Z,-21147.48
2019-01-15T19:19:22.578Z,-21140.66
2019-01-15T19:21:54.922Z,-21135.53
2019-01-15T19:24:36.475Z,-21129.84
2019-01-15T19:27:06.454Z,-21131.12
2019-01-15T19:29:45.437Z,-21126.57
2019-01-15T19:32:31.626Z,-21136.24
2019-01-15T19:35:01.560Z,-21138.52
2019-01-15T19:37:36.361Z,-21143.50
2019-01-15T19:40:09.347Z,-21130.98
2019-01-15T19:42:39.272Z,-21126.99
2019-01-15T19:45:12.095Z,-21127.13
2019-01-15T19:47:51.291Z,-21114.47
2019-01-15T19:50:33.006Z,-21124.29
2019-01-15T19:53:18.125Z,-21114.18
2019-01-15T19:55:48.124Z,-21141.93
2019-01-15T19:58:23.745Z,-21128.99
2019-01-15T20:00:56.652Z,-21135.67
2019-01-15T20:03:44.315Z,-21136.67
2019-01-15T20:06:17.432Z,-21145.78
2019-01-15T20:09:03.509Z,-21140.52
2019-01-15T20:11:36.398Z,-21122.59
2019-01-15T20:14:22.764Z,-21149.04
2019-01-15T20:17:07.744Z,-21142.50
2019-01-15T20:19:53.841Z,-21148.90
2019-01-15T20:22:40.136Z,-21140.80
2019-01-15T20:25:25.275Z,-21141.09
2019-01-15T20:27:57.928Z,-21134.11
2019-01-15T20:30:39.966Z,-21152.17
2019-01-15T20:33:14.208Z,-21148.34
2019-01-15T20:36:00.604Z,-21142.22
2019-01-15T20:38:45.261Z,-21134.25
2019-01-15T20:41:24.086Z,-21136.67
2019-01-15T20:44:12.343Z,-21142.93
2019-01-15T20:46:58.277Z,-21136.53
2019-01-15T20:49:31.125Z,-21133.97
2019-01-15T20:52:02.689Z,-21124.00
2019-01-15T20:54:34.967Z,-21130.84
2019-01-15T20:57:13.785Z,-21135.25
2019-01-15T20:59:46.897Z,-21137.24
2019-01-15T21:02:19.474Z,-21149.33
2019-01-15T21:05:01.391Z,-21141.09
2019-01-15T21:07:34.042Z,-21124.00
2019-01-15T21:10:31.740Z,-21136.24
2019-01-15T21:13:23.966Z,-21143.08
2019-01-15T21:16:07.792Z,-21125.71
2019-01-15T21:18:46.869Z,-21134.11
2019-01-15T21:21:16.821Z,-21143.36
2019-01-15T21:23:46.735Z,-21133.11
2019-01-15T21:26:16.769Z,-21132.68
2019-01-15T21:28:46.692Z,-21136.10
2019-01-15T21:31:20.193Z,-21130.55
2019-01-15T21:33:55.902Z,-21128.85
2019-01-15T21:36:31.630Z,-21126.99
2019-01-15T21:39:17.972Z,-21122.87
2019-01-15T21:42:04.139Z,-21130.27
2019-01-15T21:44:34.073Z,-21132.83
2019-01-15T21:47:09.497Z,-21126.29
2019-01-15T21:49:42.198Z,-21128.56
2019-01-15T21:52:12.129Z,-21120.73
2019-01-15T21:54:47.749Z,-21132.12
2019-01-15T21:57:17.673Z,-21123.30
2019-01-15T21:59:53.819Z,-21119.31
2019-01-15T22:02:38.547Z,-21123.72
2019-01-15T22:05:22.122Z,-21130.41
2019-01-15T22:07:57.906Z,-21128.99
2019-01-15T22:10:27.824Z,-21124.29
2019-01-15T22:12:57.758Z,-21140.37
2019-01-15T22:15:30.403Z,-21141.51
2019-01-15T22:18:12.307Z,-21147.62
2019-01-15T22:20:58.256Z,-21148.62
2019-01-15T22:23:44.437Z,-21147.34
2019-01-15T22:26:17.084Z,-21142.65
2019-01-15T22:28:47.003Z,-21127.13
2019-01-15T22:31:34.904Z,-21120.30
2019-01-15T22:34:20.922Z,-21130.69
2019-01-15T22:36:56.561Z,-21135.81
2019-01-15T22:39:28.983Z,-21119.45
2019-01-15T22:42:13.866Z,-21136.10
2019-01-15T22:44:59.753Z,-21132.12
2019-01-15T22:47:41.185Z,-21119.31
2019-01-15T22:50:35.737Z,-21128.99
2019-01-15T22:53:20.712Z,-21130.55
2019-01-15T22:55:53.556Z,-21134.25
2019-01-15T22:58:26.063Z,-21132.68
2019-01-15T23:01:12.024Z,-21124.86
2019-01-15T23:03:58.298Z,-21129.41
2019-01-15T23:06:37.116Z,-21128.85
2019-01-15T23:09:25.881Z,-21132.83
2019-01-15T23:11:55.811Z,-21129.41
2019-01-15T23:14:25.755Z,-21131.26
2019-01-15T23:17:04.717Z,-21130.55
2019-01-15T23:19:37.338Z,-21133.11
2019-01-15T23:22:25.012Z,-21130.84
2019-01-15T23:24:54.986Z,-21140.09
2019-01-15T23:27:27.814Z,-21132.40
2019-01-15T23:30:03.438Z,-21127.56
2019-01-15T23:32:33.366Z,-21134.82
2019-01-15T23:35:16.379Z,-21138.52
2019-01-15T23:38:02.680Z,-21129.84
2019-01-15T23:40:35.841Z,-21130.27
2019-01-15T23:43:08.623Z,-21132.97
2019-01-15T23:45:50.638Z,-21126.99
2019-01-15T23:48:26.539Z,-21123.16
2019-01-15T23:51:12.998Z,-21122.59
2019-01-15T23:53:45.609Z,-21133.68
2019-01-15T23:56:21.010Z,-21134.39
2019-01-15T23:58:50.927Z,-21128.99
